KLUK/LUK METAR and TAF weather

Enter ICAO airport designator
Station Type Date Time Source
KLUK METAR 2018/12/15 05:34 UTC NOAA

KLUK 150534Z 00000KT 10SM -RA OVC009 09/08 A3005 RMK AO2 P0001 T00940083


Station Type Date Time Source
KLUK Decoded METAR 2018/12/15 05:34 UTC NOAA

CINCINNATI MUN LUNKEN FLD, OH, United States (KLUK) 39-06N 84-25W 155M
Dec 15, 2018 - 12:34 AM EST / 2018.12.15 0534 UTC
Wind: Calm:0
Visibility: 10 mile(s):0
Sky conditions: overcast
Weather: light rain
Precipitation last hour: 0.01 inches
Temperature: 48.9 F (9.4 C)
Dew Point: 46.9 F (8.3 C)
Relative Humidity: 92%
Pressure (altimeter): 30.05 in. Hg (1017 hPa)
ob: KLUK 150534Z 00000KT 10SM -RA OVC009 09/08 A3005 RMK AO2 P0001 T00940083
cycle: 5

Station Type Date Time Source
KLUK TAF 2018/12/15 06:36 UTC NOAA

TAF KLUK 150535Z 1506/1606 05009KT P6SM VCSH OVC011
FM150900 05010KT 4SM -RA OVC008
FM151600 03010KT 3SM -RA BR OVC009
FM160100 01007KT 5SM BR VCSH OVC007


Example: see airport list